createdAt,value
2023-02-14T00:01:57.120Z,71.37
2023-02-14T00:04:01.315Z,79.80
2023-02-14T00:06:11.506Z,77.97
2023-02-14T00:08:16.280Z,67.93
2023-02-14T00:10:19.427Z,65.77
2023-02-14T00:12:22.018Z,58.57
2023-02-14T00:14:42.483Z,67.10
2023-02-14T00:16:47.081Z,71.53
2023-02-14T00:19:04.098Z,71.53
2023-02-14T00:21:06.146Z,66.53
2023-02-14T00:23:08.159Z,63.87
2023-02-14T00:25:10.431Z,63.20
2023-02-14T00:27:12.509Z,61.80
2023-02-14T00:29:17.087Z,60.47
2023-02-14T00:31:19.480Z,57.03
2023-02-14T00:33:23.585Z,58.40
2023-02-14T00:35:25.701Z,57.63
2023-02-14T00:37:29.633Z,59.53
2023-02-14T00:39:32.158Z,69.67
2023-02-14T00:41:34.428Z,74.73
2023-02-14T00:43:36.323Z,68.83
2023-02-14T00:45:38.395Z,61.10
2023-02-14T00:47:40.296Z,61.07
2023-02-14T00:49:42.709Z,58.73
2023-02-14T00:51:44.747Z,59.37
2023-02-14T00:53:49.204Z,61.77
2023-02-14T00:55:51.727Z,67.87
2023-02-14T00:57:57.083Z,63.17
2023-02-14T00:59:59.098Z,67.17
2023-02-14T01:02:02.626Z,76.67
2023-02-14T01:04:05.171Z,83.23
2023-02-14T01:06:08.212Z,68.67
2023-02-14T01:08:10.544Z,64.57
2023-02-14T01:10:13.578Z,51.07
2023-02-14T01:12:17.979Z,52.77
2023-02-14T01:14:19.960Z,57.83
2023-02-14T01:16:24.151Z,58.53
2023-02-14T01:18:26.150Z,59.63
2023-02-14T01:20:28.512Z,66.47
2023-02-14T01:22:34.762Z,49.20
2023-02-14T01:24:36.774Z,42.67
2023-02-14T01:26:39.538Z,63.53
2023-02-14T01:28:42.274Z,56.40
2023-02-14T01:30:44.377Z,57.27
2023-02-14T01:32:46.665Z,54.03
2023-02-14T01:34:48.879Z,53.63
2023-02-14T01:36:51.181Z,47.17
2023-02-14T01:38:57.044Z,47.73
2023-02-14T01:40:59.562Z,55.07
2023-02-14T01:43:05.891Z,54.17
2023-02-14T01:45:21.028Z,62.43
2023-02-14T01:47:23.792Z,62.47
2023-02-14T01:49:37.924Z,63.70
2023-02-14T01:51:46.761Z,66.30
2023-02-14T01:53:50.318Z,59.20
2023-02-14T01:56:06.164Z,62.67
2023-02-14T01:58:25.458Z,59.97
2023-02-14T02:00:46.860Z,61.63
2023-02-14T02:02:49.469Z,71.93
2023-02-14T02:04:56.945Z,57.53
2023-02-14T02:07:05.105Z,72.67
2023-02-14T02:09:22.482Z,63.80
2023-02-14T02:11:24.678Z,59.57
2023-02-14T02:13:26.671Z,59.87
2023-02-14T02:15:35.410Z,74.90
2023-02-14T02:18:20.308Z,72.27
2023-02-14T02:20:29.164Z,75.00
2023-02-14T02:22:38.446Z,64.97
2023-02-14T02:24:43.336Z,69.00
2023-02-14T02:26:45.309Z,62.30
2023-02-14T02:29:12.287Z,57.53
2023-02-14T02:32:08.319Z,69.90
2023-02-14T02:34:18.974Z,68.97
2023-02-14T02:36:41.036Z,68.83
2023-02-14T02:38:58.381Z,75.50
2023-02-14T02:41:32.698Z,81.00
2023-02-14T02:44:03.832Z,76.13
2023-02-14T02:46:35.460Z,76.77
2023-02-14T02:48:45.504Z,72.87
2023-02-14T02:51:22.751Z,68.43
2023-02-14T02:53:39.960Z,66.00
2023-02-14T02:56:46.148Z,63.30
2023-02-14T02:59:05.017Z,65.97
2023-02-14T03:01:14.841Z,60.30
2023-02-14T03:03:35.804Z,53.07
2023-02-14T03:05:38.276Z,63.53
2023-02-14T03:07:40.581Z,56.60
2023-02-14T03:09:43.390Z,56.83
2023-02-14T03:12:31.410Z,58.17
2023-02-14T03:14:57.354Z,60.97
2023-02-14T03:17:50.864Z,62.13
2023-02-14T03:20:17.828Z,66.60
2023-02-14T03:22:43.650Z,54.67
2023-02-14T03:24:53.953Z,57.97
2023-02-14T03:27:05.118Z,57.27
2023-02-14T03:29:20.219Z,62.17
2023-02-14T03:31:38.523Z,61.27
2023-02-14T03:33:53.186Z,60.37
2023-02-14T03:36:10.925Z,60.10
2023-02-14T03:38:33.428Z,63.93
2023-02-14T03:40:49.578Z,55.53
2023-02-14T03:42:57.586Z,57.83
2023-02-14T03:45:02.843Z,56.00
2023-02-14T03:47:13.027Z,59.53
2023-02-14T03:49:24.036Z,61.50
2023-02-14T03:51:28.513Z,62.80
2023-02-14T03:53:35.236Z,59.03
2023-02-14T03:55:44.874Z,62.23
2023-02-14T03:57:59.891Z,60.90
2023-02-14T04:00:03.322Z,62.10
2023-02-14T04:02:16.465Z,56.37
2023-02-14T04:04:21.775Z,57.80
2023-02-14T04:06:24.062Z,62.40
2023-02-14T04:08:28.588Z,65.70
2023-02-14T04:10:30.999Z,63.63
2023-02-14T04:12:38.037Z,63.73
2023-02-14T04:14:40.827Z,61.23
2023-02-14T04:17:01.813Z,56.93
2023-02-14T04:19:22.412Z,60.47
2023-02-14T04:21:24.806Z,57.70
2023-02-14T04:23:27.293Z,65.33
2023-02-14T04:25:29.757Z,56.63
2023-02-14T04:27:31.824Z,57.63
2023-02-14T04:29:34.142Z,50.03
2023-02-14T04:31:36.293Z,63.47
2023-02-14T04:33:39.416Z,54.90
2023-02-14T04:35:41.704Z,61.80
2023-02-14T04:37:44.293Z,59.63
2023-02-14T04:39:46.380Z,65.27
2023-02-14T04:41:48.471Z,60.03
2023-02-14T04:43:50.808Z,66.23
2023-02-14T04:45:53.026Z,64.77
2023-02-14T04:47:55.033Z,65.07
2023-02-14T04:49:57.033Z,62.80
2023-02-14T04:51:59.603Z,63.73
2023-02-14T04:54:01.955Z,61.60
2023-02-14T04:56:04.439Z,65.23
2023-02-14T04:58:06.454Z,63.70
2023-02-14T05:00:09.220Z,62.40
2023-02-14T05:02:11.315Z,59.63
2023-02-14T05:04:13.802Z,54.90
2023-02-14T05:06:16.082Z,60.77
2023-02-14T05:08:18.342Z,58.73
2023-02-14T05:10:20.445Z,59.73
2023-02-14T05:12:22.630Z,51.87
2023-02-14T05:14:24.805Z,52.77
2023-02-14T05:16:27.150Z,50.10
2023-02-14T05:18:29.672Z,65.60
2023-02-14T05:20:32.287Z,69.93
2023-02-14T05:22:34.483Z,73.37
2023-02-14T05:24:36.574Z,80.93
2023-02-14T05:26:38.789Z,71.57
2023-02-14T05:28:41.344Z,73.90
2023-02-14T05:30:43.865Z,69.50
2023-02-14T05:32:45.975Z,76.33
2023-02-14T05:34:50.426Z,73.17
2023-02-14T05:36:55.172Z,76.90
2023-02-14T05:38:57.346Z,76.13
2023-02-14T05:40:59.944Z,73.37
2023-02-14T05:43:04.785Z,91.23
2023-02-14T05:45:07.247Z,88.67
2023-02-14T05:47:11.005Z,86.57
2023-02-14T05:49:14.655Z,79.50
2023-02-14T05:51:16.887Z,131.03
2023-02-14T05:53:19.002Z,127.77
2023-02-14T05:55:21.383Z,116.40
2023-02-14T05:57:23.844Z,121.70
2023-02-14T05:59:25.990Z,104.70
2023-02-14T06:01:28.108Z,103.53
2023-02-14T06:03:30.328Z,101.73
2023-02-14T06:05:32.492Z,102.13
2023-02-14T06:07:34.986Z,100.07
2023-02-14T06:09:37.425Z,98.27
2023-02-14T06:11:39.931Z,114.40
2023-02-14T06:13:42.008Z,116.47
2023-02-14T06:15:44.476Z,113.67
2023-02-14T06:17:54.568Z,111.53
2023-02-14T06:19:56.709Z,111.60
2023-02-14T06:21:58.612Z,112.40
2023-02-14T06:24:00.924Z,115.83
2023-02-14T06:26:03.989Z,117.30
2023-02-14T06:28:06.747Z,121.67
2023-02-14T06:30:10.846Z,114.00
2023-02-14T06:32:14.009Z,119.70
2023-02-14T06:34:16.385Z,130.83
2023-02-14T06:36:19.343Z,126.97
2023-02-14T06:38:21.627Z,126.43
2023-02-14T06:40:24.376Z,122.73
2023-02-14T06:42:26.644Z,118.90
2023-02-14T06:44:28.893Z,122.47
2023-02-14T06:46:31.318Z,116.07
2023-02-14T06:48:33.603Z,110.43
2023-02-14T06:50:35.992Z,132.73
2023-02-14T06:52:37.989Z,130.93
2023-02-14T06:54:40.288Z,126.37
2023-02-14T06:56:42.742Z,124.73
2023-02-14T06:58:45.197Z,120.43
2023-02-14T07:00:47.871Z,120.87
2023-02-14T07:02:49.960Z,127.17
2023-02-14T07:04:52.066Z,126.83
2023-02-14T07:06:54.623Z,119.80
2023-02-14T07:08:56.779Z,123.43
2023-02-14T07:10:59.269Z,128.23
2023-02-14T07:13:01.692Z,121.03
2023-02-14T07:15:04.292Z,132.63
2023-02-14T07:17:06.380Z,119.63
2023-02-14T07:19:08.464Z,116.70
2023-02-14T07:21:10.562Z,98.33
2023-02-14T07:23:13.080Z,95.43
2023-02-14T07:25:15.497Z,96.00
2023-02-14T07:27:17.649Z,86.77
2023-02-14T07:29:19.845Z,89.90
2023-02-14T07:31:23.695Z,82.63
2023-02-14T07:33:25.950Z,87.17
2023-02-14T07:35:30.423Z,81.57
2023-02-14T07:37:33.869Z,79.50
2023-02-14T07:39:35.884Z,70.50
2023-02-14T07:41:38.101Z,72.23
2023-02-14T07:43:45.055Z,65.87
2023-02-14T07:45:47.259Z,64.80
2023-02-14T07:47:51.551Z,62.37
2023-02-14T07:49:53.799Z,66.10
2023-02-14T07:51:55.978Z,69.37
2023-02-14T07:54:00.646Z,68.80
2023-02-14T07:56:02.816Z,80.83
2023-02-14T07:58:05.222Z,82.67
2023-02-14T08:00:08.554Z,90.50
2023-02-14T08:02:16.151Z,100.37
2023-02-14T08:04:18.494Z,93.10
2023-02-14T08:06:20.788Z,89.20
2023-02-14T08:08:29.007Z,90.50
2023-02-14T08:10:31.407Z,81.70
2023-02-14T08:12:51.984Z,84.37
2023-02-14T08:14:54.700Z,80.67
2023-02-14T08:16:57.096Z,89.20
2023-02-14T08:18:59.251Z,90.50
2023-02-14T08:21:01.808Z,91.87
2023-02-14T08:23:04.399Z,87.97
2023-02-14T08:25:07.151Z,84.87
2023-02-14T08:27:09.161Z,87.10
2023-02-14T08:29:11.258Z,80.73
2023-02-14T08:31:14.834Z,82.60
2023-02-14T08:33:18.602Z,89.43
2023-02-14T08:35:20.681Z,89.13
2023-02-14T08:37:23.068Z,96.80
2023-02-14T08:39:25.597Z,83.23
2023-02-14T08:41:27.757Z,86.93
2023-02-14T08:43:29.873Z,89.50
2023-02-14T08:45:32.353Z,97.03
2023-02-14T08:47:36.128Z,87.20
2023-02-14T08:49:38.417Z,90.23
2023-02-14T08:51:40.549Z,93.70
2023-02-14T08:53:43.712Z,98.20
2023-02-14T08:55:46.219Z,93.70
2023-02-14T08:57:49.634Z,97.23
2023-02-14T08:59:51.581Z,96.90
2023-02-14T09:01:53.942Z,88.40
2023-02-14T09:03:57.123Z,95.10
2023-02-14T09:06:07.061Z,99.47
2023-02-14T09:08:09.396Z,91.37
2023-02-14T09:10:11.984Z,93.07
2023-02-14T09:12:14.122Z,94.00
2023-02-14T09:14:16.405Z,96.30
2023-02-14T09:16:22.371Z,107.90
2023-02-14T09:18:24.779Z,110.93
2023-02-14T09:20:26.964Z,104.43
2023-02-14T09:22:29.388Z,101.50
2023-02-14T09:24:33.262Z,103.67
2023-02-14T09:26:37.184Z,99.40
2023-02-14T09:28:40.179Z,96.87
2023-02-14T09:30:42.682Z,92.37
2023-02-14T09:32:45.020Z,89.83
2023-02-14T09:34:47.189Z,93.20
2023-02-14T09:37:07.820Z,88.20
2023-02-14T09:39:09.883Z,88.93
2023-02-14T09:41:52.519Z,86.37
2023-02-14T09:44:15.989Z,88.73
2023-02-14T09:46:19.769Z,85.30
2023-02-14T09:48:31.748Z,89.33
2023-02-14T09:50:49.150Z,87.57
2023-02-14T09:52:56.053Z,86.17
2023-02-14T09:55:01.586Z,94.30
2023-02-14T09:57:46.764Z,93.63
2023-02-14T09:59:55.229Z,92.43
2023-02-14T10:02:06.981Z,100.87
2023-02-14T10:04:42.924Z,91.00
2023-02-14T10:07:17.662Z,90.97
2023-02-14T10:09:34.562Z,88.93
2023-02-14T10:11:37.535Z,80.80
2023-02-14T10:14:04.318Z,87.30
2023-02-14T10:16:32.759Z,82.90
2023-02-14T10:18:43.217Z,94.67
2023-02-14T10:20:49.229Z,92.20
2023-02-14T10:23:03.078Z,102.13
2023-02-14T10:25:20.354Z,102.63
2023-02-14T10:27:40.617Z,109.00
2023-02-14T10:29:42.898Z,106.67
2023-02-14T10:31:57.783Z,111.30
2023-02-14T10:34:08.377Z,94.17
2023-02-14T10:36:23.862Z,86.90
2023-02-14T10:38:41.087Z,79.73
2023-02-14T10:40:46.133Z,65.80
2023-02-14T10:43:16.322Z,59.93
2023-02-14T10:45:24.164Z,56.47
2023-02-14T10:47:47.212Z,51.00
2023-02-14T10:50:19.593Z,51.13
2023-02-14T10:52:39.161Z,45.87
2023-02-14T10:54:51.002Z,52.67
2023-02-14T10:57:04.381Z,61.57
2023-02-14T10:59:19.325Z,65.17
2023-02-14T11:01:22.388Z,70.27
2023-02-14T11:03:24.782Z,65.53
2023-02-14T11:05:46.941Z,63.17
2023-02-14T11:07:49.687Z,65.40
2023-02-14T11:09:51.899Z,65.03
2023-02-14T11:11:57.383Z,65.87
2023-02-14T11:14:02.156Z,65.00
2023-02-14T11:16:10.906Z,65.03
2023-02-14T11:18:31.990Z,61.00
2023-02-14T11:20:34.148Z,68.30
2023-02-14T11:22:36.467Z,62.07
2023-02-14T11:24:42.030Z,54.33
2023-02-14T11:26:50.266Z,49.33
2023-02-14T11:28:57.546Z,53.57
2023-02-14T11:31:00.471Z,50.37
2023-02-14T11:33:04.939Z,50.53
2023-02-14T11:35:34.656Z,52.97
2023-02-14T11:37:46.351Z,48.53
2023-02-14T11:39:50.149Z,47.60
2023-02-14T11:41:56.534Z,57.00
2023-02-14T11:44:15.591Z,58.03
2023-02-14T11:46:21.250Z,50.97
2023-02-14T11:48:37.858Z,52.57
2023-02-14T11:50:42.772Z,48.70
2023-02-14T11:52:57.238Z,56.57
2023-02-14T11:55:00.758Z,50.30
2023-02-14T11:57:28.560Z,52.30
2023-02-14T11:59:56.418Z,51.20
2023-02-14T12:02:03.711Z,52.57
2023-02-14T12:04:15.574Z,46.97
2023-02-14T12:06:36.974Z,46.57
2023-02-14T12:08:42.075Z,54.07
2023-02-14T12:10:44.320Z,50.37
2023-02-14T12:12:50.865Z,45.20
2023-02-14T12:15:10.603Z,45.87
2023-02-14T12:17:31.792Z,38.90
2023-02-14T12:20:01.356Z,45.23
2023-02-14T12:22:06.656Z,46.10
2023-02-14T12:24:16.989Z,48.67
2023-02-14T12:26:32.423Z,50.30
2023-02-14T12:28:44.229Z,45.70
2023-02-14T12:30:47.113Z,39.57
2023-02-14T12:32:52.493Z,40.20
2023-02-14T12:35:04.483Z,44.10
2023-02-14T12:37:30.806Z,39.40
2023-02-14T12:39:41.667Z,42.40
2023-02-14T12:42:00.250Z,42.37
2023-02-14T12:44:16.534Z,39.30
2023-02-14T12:46:55.993Z,39.47
2023-02-14T12:49:32.585Z,42.50
2023-02-14T12:52:03.747Z,39.57
2023-02-14T12:54:55.768Z,42.83
2023-02-14T12:57:13.634Z,44.83
2023-02-14T12:59:44.695Z,48.27
2023-02-14T13:02:05.318Z,44.80
2023-02-14T13:04:35.163Z,46.13
2023-02-14T13:06:41.271Z,48.27
2023-02-14T13:09:10.847Z,45.43
2023-02-14T13:11:13.168Z,52.47
2023-02-14T13:13:33.351Z,54.37
2023-02-14T13:16:02.041Z,44.50
2023-02-14T13:18:15.895Z,55.30
2023-02-14T13:20:56.530Z,58.70
2023-02-14T13:23:04.409Z,55.37
2023-02-14T13:25:31.862Z,46.17
2023-02-14T13:27:38.477Z,46.00
2023-02-14T13:29:48.673Z,43.83
2023-02-14T13:31:54.305Z,45.60
2023-02-14T13:34:07.874Z,44.13
2023-02-14T13:36:13.313Z,40.17
2023-02-14T13:38:18.518Z,44.33
2023-02-14T13:40:28.184Z,47.00
2023-02-14T13:42:51.896Z,47.80
2023-02-14T13:44:54.094Z,52.80
2023-02-14T13:46:56.279Z,51.47
2023-02-14T13:49:02.933Z,44.57
2023-02-14T13:51:10.160Z,42.57
2023-02-14T13:53:13.941Z,43.07
2023-02-14T13:55:26.348Z,42.40
2023-02-14T13:57:36.656Z,44.43
2023-02-14T13:59:38.824Z,38.60
2023-02-14T14:01:50.290Z,41.50
2023-02-14T14:03:55.430Z,40.37
2023-02-14T14:06:03.043Z,37.67
2023-02-14T14:08:35.304Z,37.03
2023-02-14T14:10:47.463Z,37.30
2023-02-14T14:12:52.259Z,37.87
2023-02-14T14:15:06.588Z,40.13
2023-02-14T14:17:20.804Z,39.73
2023-02-14T14:19:25.929Z,40.53
2023-02-14T14:21:38.021Z,40.73
2023-02-14T14:23:42.084Z,38.03
2023-02-14T14:25:45.097Z,40.90
2023-02-14T14:27:48.051Z,48.27
2023-02-14T14:30:25.936Z,46.90
2023-02-14T14:32:32.820Z,44.90
2023-02-14T14:34:34.879Z,48.43
2023-02-14T14:36:36.885Z,44.13
2023-02-14T14:38:51.152Z,43.33
2023-02-14T14:40:56.219Z,40.13
2023-02-14T14:43:24.469Z,38.23
2023-02-14T14:45:31.769Z,39.00
2023-02-14T14:47:43.500Z,48.13
2023-02-14T14:49:46.060Z,54.33
2023-02-14T14:51:49.373Z,56.33
2023-02-14T14:53:56.170Z,50.00
2023-02-14T14:55:59.048Z,61.43
2023-02-14T14:58:09.179Z,71.50
2023-02-14T15:00:22.771Z,82.90
2023-02-14T15:02:30.114Z,64.50
2023-02-14T15:04:36.128Z,76.90
2023-02-14T15:06:39.108Z,91.03
2023-02-14T15:08:41.399Z,91.50
2023-02-14T15:10:48.399Z,87.03
2023-02-14T15:13:12.008Z,80.27
2023-02-14T15:15:16.989Z,80.70
2023-02-14T15:17:31.939Z,73.07
2023-02-14T15:19:41.079Z,68.83
2023-02-14T15:21:46.223Z,62.33
2023-02-14T15:23:48.963Z,61.03
2023-02-14T15:25:52.513Z,52.60
2023-02-14T15:27:54.479Z,49.20
2023-02-14T15:30:09.060Z,48.70
2023-02-14T15:32:12.170Z,46.97
2023-02-14T15:34:14.857Z,45.53
2023-02-14T15:36:22.839Z,43.70
2023-02-14T15:38:26.629Z,43.07
2023-02-14T15:40:31.982Z,39.53
2023-02-14T15:42:40.663Z,48.90
2023-02-14T15:44:42.707Z,40.13
2023-02-14T15:46:45.314Z,39.97
2023-02-14T15:48:48.252Z,43.23
2023-02-14T15:50:56.229Z,45.13
2023-02-14T15:53:24.023Z,44.07
2023-02-14T15:55:33.435Z,42.57
2023-02-14T15:57:36.864Z,44.30
2023-02-14T15:59:42.472Z,54.03
2023-02-14T16:02:00.838Z,54.63
2023-02-14T16:04:05.486Z,53.80
2023-02-14T16:06:29.533Z,54.77
2023-02-14T16:08:37.629Z,51.43
2023-02-14T16:10:42.655Z,55.03
2023-02-14T16:12:57.638Z,57.50
2023-02-14T16:15:09.946Z,53.23
2023-02-14T16:17:14.298Z,55.43
2023-02-14T16:19:33.018Z,52.07
2023-02-14T16:21:35.277Z,59.70
2023-02-14T16:23:37.783Z,51.83
2023-02-14T16:25:41.445Z,52.97
2023-02-14T16:27:43.427Z,65.03
2023-02-14T16:29:45.489Z,60.30
2023-02-14T16:34:20.313Z,75.67
2023-02-14T16:36:28.249Z,70.60
2023-02-14T16:38:32.522Z,71.97
2023-02-14T16:40:35.451Z,74.27
2023-02-14T16:42:39.820Z,76.53
2023-02-14T16:44:41.982Z,69.83
2023-02-14T16:46:45.640Z,73.37
2023-02-14T16:48:52.477Z,66.27
2023-02-14T16:50:57.459Z,69.53
2023-02-14T16:52:59.604Z,73.17
2023-02-14T16:55:02.850Z,60.10
2023-02-14T16:57:05.554Z,63.53
2023-02-14T16:59:09.250Z,59.00
2023-02-14T17:01:11.349Z,63.07
2023-02-14T17:03:13.329Z,62.10
2023-02-14T17:05:15.401Z,65.10
2023-02-14T17:07:17.566Z,87.63
2023-02-14T17:09:27.367Z,88.53
2023-02-14T17:11:31.786Z,93.33
2023-02-14T17:13:36.992Z,92.73
2023-02-14T17:15:40.999Z,89.20
2023-02-14T17:17:44.855Z,90.30
2023-02-14T17:19:47.133Z,89.17
2023-02-14T17:21:49.489Z,96.10
2023-02-14T17:23:51.558Z,104.03
2023-02-14T17:25:53.723Z,101.13
2023-02-14T17:27:56.582Z,100.90
2023-02-14T17:29:58.994Z,101.77
2023-02-14T17:32:01.187Z,100.50
2023-02-14T17:34:04.222Z,105.53
2023-02-14T17:36:12.828Z,105.37
2023-02-14T17:38:15.072Z,108.17
2023-02-14T17:40:17.174Z,105.97
2023-02-14T17:42:19.506Z,105.10
2023-02-14T17:44:21.736Z,110.53
2023-02-14T17:46:23.876Z,111.47
2023-02-14T17:48:26.099Z,101.83
2023-02-14T17:50:28.340Z,98.40
2023-02-14T17:52:30.859Z,96.60
2023-02-14T17:54:37.665Z,103.30
2023-02-14T17:56:42.927Z,98.70
2023-02-14T17:58:47.852Z,94.33
2023-02-14T18:00:50.182Z,91.87
2023-02-14T18:02:52.402Z,99.50
2023-02-14T18:04:55.382Z,91.77
2023-02-14T18:06:57.569Z,89.03
2023-02-14T18:09:00.217Z,92.20
2023-02-14T18:11:10.681Z,86.70
2023-02-14T18:13:13.151Z,91.43
2023-02-14T18:15:15.698Z,92.53
2023-02-14T18:17:17.695Z,107.33
2023-02-14T18:19:20.346Z,112.03
2023-02-14T18:21:24.689Z,118.27
2023-02-14T18:23:27.210Z,116.63
2023-02-14T18:25:29.485Z,115.40
2023-02-14T18:27:31.461Z,104.10
2023-02-14T18:29:34.277Z,98.93
2023-02-14T18:31:38.885Z,98.23
2023-02-14T18:33:41.580Z,106.40
2023-02-14T18:35:45.347Z,105.60
2023-02-14T18:37:47.241Z,109.97
2023-02-14T18:39:49.683Z,117.93
2023-02-14T18:41:51.658Z,105.37
2023-02-14T18:43:53.947Z,135.80
2023-02-14T18:46:01.987Z,153.07
2023-02-14T18:48:05.555Z,160.17
2023-02-14T18:50:33.768Z,131.93
2023-02-14T18:52:37.293Z,134.13
2023-02-14T18:54:39.969Z,124.43
2023-02-14T18:56:42.349Z,122.80
2023-02-14T18:58:48.136Z,96.47
2023-02-14T19:00:55.087Z,92.30
2023-02-14T19:02:57.470Z,89.80
2023-02-14T19:05:00.847Z,84.03
2023-02-14T19:07:06.169Z,79.60
2023-02-14T19:09:14.572Z,81.17
2023-02-14T19:11:19.917Z,83.57
2023-02-14T19:13:22.063Z,80.30
2023-02-14T19:15:24.266Z,79.80
2023-02-14T19:17:26.409Z,77.60
2023-02-14T19:19:28.593Z,79.00
2023-02-14T19:21:36.913Z,91.87
2023-02-14T19:23:39.524Z,97.80
2023-02-14T19:25:41.748Z,93.13
2023-02-14T19:27:43.995Z,93.90
2023-02-14T19:29:46.286Z,111.00
2023-02-14T19:31:52.605Z,117.53
2023-02-14T19:33:55.617Z,102.90
2023-02-14T19:36:05.706Z,116.07
2023-02-14T19:38:07.892Z,130.27
2023-02-14T19:40:10.959Z,127.33
2023-02-14T19:42:13.284Z,115.87
2023-02-14T19:44:17.267Z,110.67
2023-02-14T19:46:20.545Z,111.07
2023-02-14T19:48:23.096Z,114.50
2023-02-14T19:50:25.624Z,115.10
2023-02-14T19:52:28.396Z,114.33
2023-02-14T19:54:31.056Z,114.27
2023-02-14T19:56:38.399Z,102.40
2023-02-14T19:58:41.874Z,97.47
2023-02-14T20:00:44.404Z,100.63
2023-02-14T20:02:48.248Z,111.40
2023-02-14T20:04:50.675Z,109.03
2023-02-14T20:06:53.544Z,106.87
2023-02-14T20:08:56.194Z,109.70
2023-02-14T20:10:58.478Z,109.10
2023-02-14T20:13:01.921Z,113.33
2023-02-14T20:15:05.753Z,121.20
2023-02-14T20:17:08.082Z,125.63
2023-02-14T20:19:13.320Z,121.70
2023-02-14T20:21:24.243Z,122.73
2023-02-14T20:23:26.848Z,113.03
2023-02-14T20:25:28.965Z,115.53
2023-02-14T20:27:31.287Z,106.83
2023-02-14T20:29:33.307Z,111.60
2023-02-14T20:31:37.477Z,111.33
2023-02-14T20:33:40.736Z,113.87
2023-02-14T20:35:42.945Z,111.83
2023-02-14T20:37:46.295Z,116.50
2023-02-14T20:39:48.417Z,112.57
2023-02-14T20:41:50.809Z,114.03
2023-02-14T20:43:52.813Z,122.33
2023-02-14T20:45:59.188Z,122.10
2023-02-14T20:48:04.345Z,126.43
2023-02-14T20:50:07.242Z,127.20
2023-02-14T20:52:09.463Z,125.33
2023-02-14T20:54:11.700Z,126.50
2023-02-14T20:56:15.406Z,122.50
2023-02-14T20:58:18.165Z,124.30
2023-02-14T21:00:20.997Z,162.43
2023-02-14T21:02:23.113Z,176.00
2023-02-14T21:04:25.767Z,166.83
2023-02-14T21:06:32.803Z,191.80
2023-02-14T21:08:36.428Z,167.80
2023-02-14T21:10:38.416Z,171.03
2023-02-14T21:12:41.106Z,151.27
2023-02-14T21:14:45.887Z,166.20
2023-02-14T21:16:48.246Z,147.47
2023-02-14T21:18:59.307Z,134.50
2023-02-14T21:21:13.549Z,153.73
2023-02-14T21:23:15.949Z,156.97
2023-02-14T21:25:18.143Z,159.10
2023-02-14T21:27:20.570Z,147.53
2023-02-14T21:29:22.782Z,147.57
2023-02-14T21:31:28.218Z,147.90
2023-02-14T21:33:32.487Z,136.93
2023-02-14T21:35:37.239Z,108.13
2023-02-14T21:37:39.146Z,100.67
2023-02-14T21:39:41.850Z,93.87
2023-02-14T21:41:43.944Z,97.97
2023-02-14T21:43:48.423Z,108.13
2023-02-14T21:45:53.782Z,144.27
2023-02-14T21:48:14.408Z,184.20
2023-02-14T21:50:31.343Z,153.60
2023-02-14T21:52:34.040Z,146.13
2023-02-14T21:54:36.017Z,130.67
2023-02-14T21:56:39.258Z,108.63
2023-02-14T21:58:41.700Z,102.40
2023-02-14T22:00:46.742Z,90.40
2023-02-14T22:02:48.934Z,87.87
2023-02-14T22:04:51.912Z,83.90
2023-02-14T22:06:56.524Z,79.67
2023-02-14T22:09:00.459Z,73.23
2023-02-14T22:11:08.207Z,85.70
2023-02-14T22:13:10.330Z,81.80
2023-02-14T22:15:12.377Z,79.43
2023-02-14T22:17:14.474Z,71.53
2023-02-14T22:19:16.695Z,78.87
2023-02-14T22:21:24.103Z,73.10
2023-02-14T22:23:28.987Z,78.07
2023-02-14T22:25:31.594Z,74.80
2023-02-14T22:27:38.506Z,71.97
2023-02-14T22:29:40.814Z,74.67
2023-02-14T22:31:44.436Z,71.53
2023-02-14T22:33:47.993Z,75.03
2023-02-14T22:35:54.916Z,77.87
2023-02-14T22:37:57.406Z,70.30
2023-02-14T22:39:59.496Z,78.33
2023-02-14T22:42:06.939Z,73.57
2023-02-14T22:44:09.393Z,76.47
2023-02-14T22:46:17.207Z,76.83
2023-02-14T22:48:20.449Z,70.33
2023-02-14T22:50:22.646Z,76.43
2023-02-14T22:52:24.509Z,93.73
2023-02-14T22:54:26.610Z,94.47
2023-02-14T22:56:41.533Z,84.73
2023-02-14T22:58:43.771Z,96.37
2023-02-14T23:00:47.764Z,97.33
2023-02-14T23:02:50.050Z,98.00
2023-02-14T23:04:52.114Z,104.67
2023-02-14T23:06:54.501Z,110.47
2023-02-14T23:08:57.261Z,122.73
2023-02-14T23:11:10.663Z,138.47
2023-02-14T23:13:31.611Z,139.70
2023-02-14T23:15:52.152Z,142.30
2023-02-14T23:18:13.448Z,139.10
2023-02-14T23:20:34.075Z,134.33
2023-02-14T23:22:38.942Z,127.77
2023-02-14T23:24:41.914Z,117.90
2023-02-14T23:26:44.239Z,120.97
2023-02-14T23:28:46.412Z,115.43
2023-02-14T23:30:48.520Z,109.10
2023-02-14T23:32:50.508Z,107.10
2023-02-14T23:34:52.677Z,107.17
2023-02-14T23:36:55.275Z,102.97
2023-02-14T23:38:57.645Z,105.73
2023-02-14T23:41:27.651Z,104.30
2023-02-14T23:43:31.458Z,86.87
2023-02-14T23:45:36.225Z,88.80
2023-02-14T23:47:38.332Z,80.63
2023-02-14T23:49:42.262Z,82.43
2023-02-14T23:51:46.470Z,79.27
2023-02-14T23:53:48.562Z,78.77
2023-02-14T23:55:50.534Z,75.13
2023-02-14T23:57:52.846Z,68.93
2023-02-14T23:59:55.047Z,75.17
